sensor_id;sensor_type;location;lat;lon;timestamp;P1;durP1;ratioP1;P2;durP2;ratioP2
956;SDS011;465;48.802;9.224;2022-11-27T00:01:29;27.37;;;21.93;;
956;SDS011;465;48.802;9.224;2022-11-27T00:03:58;23.27;;;19.97;;
956;SDS011;465;48.802;9.224;2022-11-27T00:06:25;26.77;;;19.80;;
956;SDS011;465;48.802;9.224;2022-11-27T00:08:54;25.90;;;19.90;;
956;SDS011;465;48.802;9.224;2022-11-27T00:11:23;24.40;;;19.43;;
956;SDS011;465;48.802;9.224;2022-11-27T00:13:51;26.07;;;21.40;;
956;SDS011;465;48.802;9.224;2022-11-27T00:16:18;30.40;;;20.50;;
956;SDS011;465;48.802;9.224;2022-11-27T00:18:46;23.60;;;18.97;;
956;SDS011;465;48.802;9.224;2022-11-27T00:21:14;26.57;;;20.23;;
956;SDS011;465;48.802;9.224;2022-11-27T00:23:42;27.93;;;20.43;;
956;SDS011;465;48.802;9.224;2022-11-27T00:26:09;24.83;;;19.03;;
956;SDS011;465;48.802;9.224;2022-11-27T00:28:38;27.80;;;21.10;;
956;SDS011;465;48.802;9.224;2022-11-27T00:31:05;26.90;;;20.37;;
956;SDS011;465;48.802;9.224;2022-11-27T00:33:37;29.40;;;22.33;;
956;SDS011;465;48.802;9.224;2022-11-27T00:36:04;24.63;;;21.10;;
956;SDS011;465;48.802;9.224;2022-11-27T00:38:33;22.80;;;19.20;;
956;SDS011;465;48.802;9.224;2022-11-27T00:41:04;28.30;;;23.07;;
956;SDS011;465;48.802;9.224;2022-11-27T00:43:32;25.50;;;22.17;;
956;SDS011;465;48.802;9.224;2022-11-27T00:46:00;28.20;;;20.23;;
956;SDS011;465;48.802;9.224;2022-11-27T00:48:27;28.80;;;22.23;;
956;SDS011;465;48.802;9.224;2022-11-27T00:50:57;26.07;;;20.90;;
956;SDS011;465;48.802;9.224;2022-11-27T00:53:25;25.57;;;21.50;;
956;SDS011;465;48.802;9.224;2022-11-27T00:55:52;33.17;;;21.90;;
956;SDS011;465;48.802;9.224;2022-11-27T00:58:19;24.63;;;18.93;;
956;SDS011;465;48.802;9.224;2022-11-27T01:00:46;23.23;;;20.73;;
956;SDS011;465;48.802;9.224;2022-11-27T01:03:22;29.33;;;21.90;;
956;SDS011;465;48.802;9.224;2022-11-27T01:05:49;24.87;;;21.90;;
956;SDS011;465;48.802;9.224;2022-11-27T01:08:16;27.93;;;21.77;;
956;SDS011;465;48.802;9.224;2022-11-27T01:10:47;25.47;;;22.07;;
956;SDS011;465;48.802;9.224;2022-11-27T01:13:15;24.97;;;20.53;;
956;SDS011;465;48.802;9.224;2022-11-27T01:15:42;30.43;;;21.73;;
956;SDS011;465;48.802;9.224;2022-11-27T01:18:09;29.53;;;24.93;;
956;SDS011;465;48.802;9.224;2022-11-27T01:20:39;23.70;;;20.63;;
956;SDS011;465;48.802;9.224;2022-11-27T01:23:06;25.77;;;21.73;;
956;SDS011;465;48.802;9.224;2022-11-27T01:25:33;27.03;;;20.53;;
956;SDS011;465;48.802;9.224;2022-11-27T01:28:00;27.50;;;21.03;;
956;SDS011;465;48.802;9.224;2022-11-27T01:30:27;23.77;;;21.27;;
956;SDS011;465;48.802;9.224;2022-11-27T01:32:54;26.83;;;20.47;;
956;SDS011;465;48.802;9.224;2022-11-27T01:35:21;21.83;;;19.50;;
956;SDS011;465;48.802;9.224;2022-11-27T01:37:49;26.10;;;21.37;;
956;SDS011;465;48.802;9.224;2022-11-27T01:40:16;24.13;;;19.70;;
956;SDS011;465;48.802;9.224;2022-11-27T01:42:43;29.40;;;20.73;;
956;SDS011;465;48.802;9.224;2022-11-27T01:45:10;22.77;;;20.27;;
956;SDS011;465;48.802;9.224;2022-11-27T01:47:42;24.93;;;20.77;;
956;SDS011;465;48.802;9.224;2022-11-27T01:50:16;25.57;;;19.50;;
956;SDS011;465;48.802;9.224;2022-11-27T01:52:49;26.80;;;21.43;;
956;SDS011;465;48.802;9.224;2022-11-27T01:55:25;29.30;;;20.93;;
956;SDS011;465;48.802;9.224;2022-11-27T01:57:57;27.00;;;20.20;;
956;SDS011;465;48.802;9.224;2022-11-27T02:00:26;28.37;;;20.97;;
956;SDS011;465;48.802;9.224;2022-11-27T02:02:53;22.63;;;19.70;;
956;SDS011;465;48.802;9.224;2022-11-27T02:05:20;32.80;;;22.63;;
956;SDS011;465;48.802;9.224;2022-11-27T02:07:50;24.07;;;20.30;;
956;SDS011;465;48.802;9.224;2022-11-27T02:10:18;29.63;;;21.97;;
956;SDS011;465;48.802;9.224;2022-11-27T02:12:50;31.30;;;22.90;;
956;SDS011;465;48.802;9.224;2022-11-27T02:15:22;25.47;;;21.20;;
956;SDS011;465;48.802;9.224;2022-11-27T02:17:57;29.10;;;22.77;;
956;SDS011;465;48.802;9.224;2022-11-27T02:20:34;27.90;;;22.10;;
956;SDS011;465;48.802;9.224;2022-11-27T02:23:33;30.35;;;22.25;;
956;SDS011;465;48.802;9.224;2022-11-27T02:26:36;32.47;;;22.87;;
956;SDS011;465;48.802;9.224;2022-11-27T02:29:28;27.53;;;21.43;;
956;SDS011;465;48.802;9.224;2022-11-27T02:31:57;30.10;;;22.73;;
956;SDS011;465;48.802;9.224;2022-11-27T02:34:31;27.37;;;21.37;;
956;SDS011;465;48.802;9.224;2022-11-27T02:37:10;27.80;;;22.87;;
956;SDS011;465;48.802;9.224;2022-11-27T02:39:44;31.10;;;23.27;;
956;SDS011;465;48.802;9.224;2022-11-27T02:42:17;26.33;;;20.53;;
956;SDS011;465;48.802;9.224;2022-11-27T02:44:48;26.67;;;22.00;;
956;SDS011;465;48.802;9.224;2022-11-27T02:47:18;38.17;;;25.67;;
956;SDS011;465;48.802;9.224;2022-11-27T02:49:45;28.53;;;20.87;;
956;SDS011;465;48.802;9.224;2022-11-27T02:52:15;27.58;;;22.73;;
956;SDS011;465;48.802;9.224;2022-11-27T02:54:45;27.80;;;21.33;;
956;SDS011;465;48.802;9.224;2022-11-27T02:57:15;30.87;;;22.70;;
956;SDS011;465;48.802;9.224;2022-11-27T02:59:46;32.33;;;23.77;;
956;SDS011;465;48.802;9.224;2022-11-27T03:02:17;27.48;;;21.75;;
956;SDS011;465;48.802;9.224;2022-11-27T03:04:46;28.70;;;21.47;;
956;SDS011;465;48.802;9.224;2022-11-27T03:07:16;31.10;;;21.80;;
956;SDS011;465;48.802;9.224;2022-11-27T03:09:49;26.83;;;21.43;;
956;SDS011;465;48.802;9.224;2022-11-27T03:12:22;30.40;;;23.90;;
956;SDS011;465;48.802;9.224;2022-11-27T03:14:53;30.80;;;21.57;;
956;SDS011;465;48.802;9.224;2022-11-27T03:17:25;31.27;;;23.60;;
956;SDS011;465;48.802;9.224;2022-11-27T03:20:03;26.40;;;19.83;;
956;SDS011;465;48.802;9.224;2022-11-27T03:22:40;23.10;;;18.47;;
956;SDS011;465;48.802;9.224;2022-11-27T03:25:07;30.67;;;21.30;;
956;SDS011;465;48.802;9.224;2022-11-27T03:27:34;25.87;;;20.90;;
956;SDS011;465;48.802;9.224;2022-11-27T03:30:09;23.38;;;18.60;;
956;SDS011;465;48.802;9.224;2022-11-27T03:32:36;24.15;;;21.60;;
956;SDS011;465;48.802;9.224;2022-11-27T03:35:03;27.90;;;20.10;;
956;SDS011;465;48.802;9.224;2022-11-27T03:37:34;29.37;;;21.07;;
956;SDS011;465;48.802;9.224;2022-11-27T03:40:01;27.67;;;21.40;;
956;SDS011;465;48.802;9.224;2022-11-27T03:42:30;27.10;;;21.33;;
956;SDS011;465;48.802;9.224;2022-11-27T03:45:06;30.77;;;22.30;;
956;SDS011;465;48.802;9.224;2022-11-27T03:47:44;27.60;;;20.27;;
956;SDS011;465;48.802;9.224;2022-11-27T03:50:25;26.20;;;20.70;;
956;SDS011;465;48.802;9.224;2022-11-27T03:53:00;33.33;;;21.55;;
956;SDS011;465;48.802;9.224;2022-11-27T03:55:35;26.13;;;19.48;;
956;SDS011;465;48.802;9.224;2022-11-27T03:58:07;25.95;;;19.30;;
956;SDS011;465;48.802;9.224;2022-11-27T04:00:39;26.93;;;20.27;;
956;SDS011;465;48.802;9.224;2022-11-27T04:03:08;25.50;;;20.33;;
956;SDS011;465;48.802;9.224;2022-11-27T04:05:36;21.58;;;18.25;;
956;SDS011;465;48.802;9.224;2022-11-27T04:08:03;24.60;;;18.60;;
956;SDS011;465;48.802;9.224;2022-11-27T04:10:30;25.90;;;20.90;;
956;SDS011;465;48.802;9.224;2022-11-27T04:12:57;23.00;;;19.73;;
956;SDS011;465;48.802;9.224;2022-11-27T04:15:24;25.40;;;19.37;;
956;SDS011;465;48.802;9.224;2022-11-27T04:17:52;24.98;;;18.38;;
956;SDS011;465;48.802;9.224;2022-11-27T04:20:19;25.52;;;19.23;;
956;SDS011;465;48.802;9.224;2022-11-27T04:22:52;24.80;;;19.05;;
956;SDS011;465;48.802;9.224;2022-11-27T04:25:19;23.75;;;18.17;;
956;SDS011;465;48.802;9.224;2022-11-27T04:27:46;23.50;;;18.70;;
956;SDS011;465;48.802;9.224;2022-11-27T04:30:12;24.23;;;17.90;;
956;SDS011;465;48.802;9.224;2022-11-27T04:32:39;22.53;;;18.67;;
956;SDS011;465;48.802;9.224;2022-11-27T04:35:08;24.17;;;18.25;;
956;SDS011;465;48.802;9.224;2022-11-27T04:37:38;24.73;;;19.23;;
956;SDS011;465;48.802;9.224;2022-11-27T04:40:05;24.70;;;19.95;;
956;SDS011;465;48.802;9.224;2022-11-27T04:42:33;22.55;;;18.90;;
956;SDS011;465;48.802;9.224;2022-11-27T04:44:59;24.60;;;19.40;;
956;SDS011;465;48.802;9.224;2022-11-27T04:47:26;24.23;;;18.00;;
956;SDS011;465;48.802;9.224;2022-11-27T04:49:53;19.73;;;17.45;;
956;SDS011;465;48.802;9.224;2022-11-27T04:52:21;24.05;;;17.77;;
956;SDS011;465;48.802;9.224;2022-11-27T04:54:48;24.60;;;19.50;;
956;SDS011;465;48.802;9.224;2022-11-27T04:57:15;21.90;;;18.70;;
956;SDS011;465;48.802;9.224;2022-11-27T04:59:42;19.50;;;17.25;;
956;SDS011;465;48.802;9.224;2022-11-27T05:02:09;24.60;;;19.30;;
956;SDS011;465;48.802;9.224;2022-11-27T05:04:36;26.75;;;18.98;;
956;SDS011;465;48.802;9.224;2022-11-27T05:07:03;27.30;;;20.23;;
956;SDS011;465;48.802;9.224;2022-11-27T05:09:31;19.33;;;17.38;;
956;SDS011;465;48.802;9.224;2022-11-27T05:11:58;20.52;;;16.85;;
956;SDS011;465;48.802;9.224;2022-11-27T05:14:25;20.80;;;16.25;;
956;SDS011;465;48.802;9.224;2022-11-27T05:16:53;22.50;;;18.20;;
956;SDS011;465;48.802;9.224;2022-11-27T05:19:23;19.83;;;17.05;;
956;SDS011;465;48.802;9.224;2022-11-27T05:21:51;21.60;;;16.13;;
956;SDS011;465;48.802;9.224;2022-11-27T05:24:20;19.10;;;17.00;;
956;SDS011;465;48.802;9.224;2022-11-27T05:26:50;21.92;;;16.63;;
956;SDS011;465;48.802;9.224;2022-11-27T05:29:17;20.77;;;17.57;;
956;SDS011;465;48.802;9.224;2022-11-27T05:31:44;23.85;;;17.85;;
956;SDS011;465;48.802;9.224;2022-11-27T05:34:11;20.92;;;17.95;;
956;SDS011;465;48.802;9.224;2022-11-27T05:36:38;25.08;;;18.70;;
956;SDS011;465;48.802;9.224;2022-11-27T05:39:05;22.40;;;17.70;;
956;SDS011;465;48.802;9.224;2022-11-27T05:41:34;25.65;;;18.25;;
956;SDS011;465;48.802;9.224;2022-11-27T05:44:02;22.30;;;18.48;;
956;SDS011;465;48.802;9.224;2022-11-27T05:46:29;24.48;;;17.85;;
956;SDS011;465;48.802;9.224;2022-11-27T05:48:56;20.23;;;15.98;;
956;SDS011;465;48.802;9.224;2022-11-27T05:51:23;19.95;;;16.75;;
956;SDS011;465;48.802;9.224;2022-11-27T05:53:50;18.08;;;16.02;;
956;SDS011;465;48.802;9.224;2022-11-27T05:56:17;20.77;;;16.00;;
956;SDS011;465;48.802;9.224;2022-11-27T05:58:45;21.50;;;16.55;;
956;SDS011;465;48.802;9.224;2022-11-27T06:01:15;19.55;;;15.25;;
956;SDS011;465;48.802;9.224;2022-11-27T06:03:42;17.05;;;14.13;;
956;SDS011;465;48.802;9.224;2022-11-27T06:06:10;19.50;;;14.70;;
956;SDS011;465;48.802;9.224;2022-11-27T06:08:39;22.00;;;16.40;;
956;SDS011;465;48.802;9.224;2022-11-27T06:11:07;19.55;;;16.85;;
956;SDS011;465;48.802;9.224;2022-11-27T06:13:35;22.00;;;16.88;;
956;SDS011;465;48.802;9.224;2022-11-27T06:16:05;19.83;;;17.33;;
956;SDS011;465;48.802;9.224;2022-11-27T06:18:34;19.15;;;16.38;;
956;SDS011;465;48.802;9.224;2022-11-27T06:21:04;24.05;;;16.73;;
956;SDS011;465;48.802;9.224;2022-11-27T06:23:32;20.65;;;18.45;;
956;SDS011;465;48.802;9.224;2022-11-27T06:26:07;22.55;;;16.70;;
956;SDS011;465;48.802;9.224;2022-11-27T06:28:35;19.25;;;17.20;;
956;SDS011;465;48.802;9.224;2022-11-27T06:31:03;20.23;;;16.40;;
956;SDS011;465;48.802;9.224;2022-11-27T06:33:31;22.58;;;18.42;;
956;SDS011;465;48.802;9.224;2022-11-27T06:35:59;22.90;;;16.20;;
956;SDS011;465;48.802;9.224;2022-11-27T06:38:27;20.40;;;17.60;;
956;SDS011;465;48.802;9.224;2022-11-27T06:40:54;21.95;;;17.90;;
956;SDS011;465;48.802;9.224;2022-11-27T06:43:20;18.85;;;16.95;;
956;SDS011;465;48.802;9.224;2022-11-27T06:45:53;20.20;;;15.73;;
956;SDS011;465;48.802;9.224;2022-11-27T06:48:21;19.05;;;17.02;;
956;SDS011;465;48.802;9.224;2022-11-27T06:50:48;19.75;;;16.90;;
956;SDS011;465;48.802;9.224;2022-11-27T06:53:16;20.27;;;17.95;;
956;SDS011;465;48.802;9.224;2022-11-27T06:55:43;18.30;;;15.63;;
956;SDS011;465;48.802;9.224;2022-11-27T06:58:10;20.13;;;15.10;;
956;SDS011;465;48.802;9.224;2022-11-27T07:00:37;19.73;;;15.50;;
956;SDS011;465;48.802;9.224;2022-11-27T07:03:04;21.60;;;16.58;;
956;SDS011;465;48.802;9.224;2022-11-27T07:05:30;18.35;;;14.90;;
956;SDS011;465;48.802;9.224;2022-11-27T07:07:57;17.00;;;14.80;;
956;SDS011;465;48.802;9.224;2022-11-27T07:10:25;20.13;;;16.13;;
956;SDS011;465;48.802;9.224;2022-11-27T07:12:52;17.70;;;15.52;;
956;SDS011;465;48.802;9.224;2022-11-27T07:15:19;20.33;;;16.63;;
956;SDS011;465;48.802;9.224;2022-11-27T07:17:45;18.67;;;16.40;;
956;SDS011;465;48.802;9.224;2022-11-27T07:20:12;19.10;;;15.63;;
956;SDS011;465;48.802;9.224;2022-11-27T07:22:39;21.40;;;15.48;;
956;SDS011;465;48.802;9.224;2022-11-27T07:25:06;19.00;;;15.60;;
956;SDS011;465;48.802;9.224;2022-11-27T07:27:34;20.88;;;15.27;;
956;SDS011;465;48.802;9.224;2022-11-27T07:30:01;18.50;;;14.90;;
956;SDS011;465;48.802;9.224;2022-11-27T07:32:28;16.48;;;14.73;;
956;SDS011;465;48.802;9.224;2022-11-27T07:34:56;18.13;;;14.70;;
956;SDS011;465;48.802;9.224;2022-11-27T07:37:22;18.40;;;14.18;;
956;SDS011;465;48.802;9.224;2022-11-27T07:39:49;17.92;;;14.85;;
956;SDS011;465;48.802;9.224;2022-11-27T07:42:16;17.20;;;14.05;;
956;SDS011;465;48.802;9.224;2022-11-27T07:44:44;17.10;;;13.75;;
956;SDS011;465;48.802;9.224;2022-11-27T07:47:10;18.27;;;14.77;;
956;SDS011;465;48.802;9.224;2022-11-27T07:49:37;17.85;;;14.48;;
956;SDS011;465;48.802;9.224;2022-11-27T07:52:04;15.82;;;13.40;;
956;SDS011;465;48.802;9.224;2022-11-27T07:54:31;15.48;;;12.85;;
956;SDS011;465;48.802;9.224;2022-11-27T07:56:58;13.98;;;12.68;;
956;SDS011;465;48.802;9.224;2022-11-27T07:59:25;13.93;;;12.40;;
956;SDS011;465;48.802;9.224;2022-11-27T08:01:53;13.32;;;11.93;;
956;SDS011;465;48.802;9.224;2022-11-27T08:04:19;14.23;;;12.63;;
956;SDS011;465;48.802;9.224;2022-11-27T08:06:47;11.95;;;10.73;;
956;SDS011;465;48.802;9.224;2022-11-27T08:09:14;12.43;;;10.98;;
956;SDS011;465;48.802;9.224;2022-11-27T08:11:40;16.05;;;14.40;;
956;SDS011;465;48.802;9.224;2022-11-27T08:14:07;13.65;;;12.13;;
956;SDS011;465;48.802;9.224;2022-11-27T08:16:35;13.57;;;10.68;;
956;SDS011;465;48.802;9.224;2022-11-27T08:19:03;13.98;;;12.35;;
956;SDS011;465;48.802;9.224;2022-11-27T08:21:30;13.05;;;11.50;;
956;SDS011;465;48.802;9.224;2022-11-27T08:23:58;12.40;;;11.20;;
956;SDS011;465;48.802;9.224;2022-11-27T08:26:24;13.10;;;11.18;;
956;SDS011;465;48.802;9.224;2022-11-27T08:28:52;13.10;;;11.37;;
956;SDS011;465;48.802;9.224;2022-11-27T08:31:20;11.88;;;9.98;;
956;SDS011;465;48.802;9.224;2022-11-27T08:33:47;9.70;;;8.80;;
956;SDS011;465;48.802;9.224;2022-11-27T08:36:15;13.82;;;11.00;;
956;SDS011;465;48.802;9.224;2022-11-27T08:38:42;11.20;;;10.02;;
956;SDS011;465;48.802;9.224;2022-11-27T08:41:09;10.50;;;9.50;;
956;SDS011;465;48.802;9.224;2022-11-27T08:43:35;13.47;;;12.23;;
956;SDS011;465;48.802;9.224;2022-11-27T08:46:02;10.60;;;9.52;;
956;SDS011;465;48.802;9.224;2022-11-27T08:48:29;10.63;;;9.67;;
956;SDS011;465;48.802;9.224;2022-11-27T08:50:57;9.20;;;8.30;;
956;SDS011;465;48.802;9.224;2022-11-27T08:53:25;9.83;;;8.97;;
956;SDS011;465;48.802;9.224;2022-11-27T08:55:52;8.53;;;7.57;;
956;SDS011;465;48.802;9.224;2022-11-27T08:58:18;10.20;;;9.20;;
956;SDS011;465;48.802;9.224;2022-11-27T09:00:45;15.00;;;8.93;;
956;SDS011;465;48.802;9.224;2022-11-27T09:03:12;9.30;;;8.40;;
956;SDS011;465;48.802;9.224;2022-11-27T09:05:40;8.63;;;7.83;;
956;SDS011;465;48.802;9.224;2022-11-27T09:08:08;24.00;;;21.60;;
956;SDS011;465;48.802;9.224;2022-11-27T09:10:38;9.00;;;8.10;;
956;SDS011;465;48.802;9.224;2022-11-27T09:13:05;9.60;;;8.70;;
956;SDS011;465;48.802;9.224;2022-11-27T09:15:32;9.63;;;8.70;;
956;SDS011;465;48.802;9.224;2022-11-27T09:17:59;8.30;;;7.30;;
956;SDS011;465;48.802;9.224;2022-11-27T09:20:26;8.87;;;8.00;;
956;SDS011;465;48.802;9.224;2022-11-27T09:22:53;8.13;;;7.43;;
956;SDS011;465;48.802;9.224;2022-11-27T09:25:20;10.57;;;9.43;;
956;SDS011;465;48.802;9.224;2022-11-27T09:27:48;8.40;;;7.57;;
956;SDS011;465;48.802;9.224;2022-11-27T09:30:15;8.83;;;8.00;;
956;SDS011;465;48.802;9.224;2022-11-27T09:32:42;10.63;;;9.63;;
956;SDS011;465;48.802;9.224;2022-11-27T09:35:08;13.17;;;8.53;;
956;SDS011;465;48.802;9.224;2022-11-27T09:37:35;9.27;;;8.40;;
956;SDS011;465;48.802;9.224;2022-11-27T09:40:02;10.10;;;9.10;;
956;SDS011;465;48.802;9.224;2022-11-27T09:42:35;9.90;;;8.90;;
956;SDS011;465;48.802;9.224;2022-11-27T09:45:06;10.20;;;9.17;;
956;SDS011;465;48.802;9.224;2022-11-27T09:47:39;9.73;;;8.73;;
956;SDS011;465;48.802;9.224;2022-11-27T09:50:11;10.00;;;9.10;;
956;SDS011;465;48.802;9.224;2022-11-27T09:52:40;11.27;;;10.17;;
956;SDS011;465;48.802;9.224;2022-11-27T09:55:10;10.93;;;9.93;;
956;SDS011;465;48.802;9.224;2022-11-27T09:57:43;9.90;;;9.00;;
956;SDS011;465;48.802;9.224;2022-11-27T10:00:20;10.93;;;9.57;;
956;SDS011;465;48.802;9.224;2022-11-27T10:02:47;11.40;;;10.23;;
956;SDS011;465;48.802;9.224;2022-11-27T10:05:16;10.20;;;9.23;;
956;SDS011;465;48.802;9.224;2022-11-27T10:07:59;9.07;;;8.17;;
956;SDS011;465;48.802;9.224;2022-11-27T10:10:47;10.37;;;9.20;;
956;SDS011;465;48.802;9.224;2022-11-27T10:13:30;12.47;;;8.77;;
956;SDS011;465;48.802;9.224;2022-11-27T10:16:14;10.87;;;9.87;;
956;SDS011;465;48.802;9.224;2022-11-27T10:18:51;9.00;;;7.87;;
956;SDS011;465;48.802;9.224;2022-11-27T10:21:22;9.20;;;8.30;;
956;SDS011;465;48.802;9.224;2022-11-27T10:23:57;9.77;;;8.87;;
956;SDS011;465;48.802;9.224;2022-11-27T10:26:30;9.10;;;8.33;;
956;SDS011;465;48.802;9.224;2022-11-27T10:29:03;9.40;;;8.57;;
956;SDS011;465;48.802;9.224;2022-11-27T10:31:38;8.83;;;7.87;;
956;SDS011;465;48.802;9.224;2022-11-27T10:34:15;8.13;;;7.20;;
956;SDS011;465;48.802;9.224;2022-11-27T10:36:49;8.93;;;8.03;;
956;SDS011;465;48.802;9.224;2022-11-27T10:39:21;9.03;;;7.90;;
956;SDS011;465;48.802;9.224;2022-11-27T10:41:55;8.00;;;7.30;;
956;SDS011;465;48.802;9.224;2022-11-27T10:44:29;8.00;;;7.30;;
956;SDS011;465;48.802;9.224;2022-11-27T10:47:00;7.80;;;7.20;;
956;SDS011;465;48.802;9.224;2022-11-27T10:49:29;7.90;;;7.20;;
956;SDS011;465;48.802;9.224;2022-11-27T10:51:56;12.53;;;8.90;;
956;SDS011;465;48.802;9.224;2022-11-27T10:54:25;7.73;;;7.03;;
956;SDS011;465;48.802;9.224;2022-11-27T10:57:02;7.30;;;6.70;;
956;SDS011;465;48.802;9.224;2022-11-27T10:59:42;7.30;;;6.70;;
956;SDS011;465;48.802;9.224;2022-11-27T11:02:29;8.93;;;8.13;;
956;SDS011;465;48.802;9.224;2022-11-27T11:04:56;11.70;;;8.33;;
956;SDS011;465;48.802;9.224;2022-11-27T11:07:24;8.43;;;7.63;;
956;SDS011;465;48.802;9.224;2022-11-27T11:09:52;8.50;;;7.53;;
956;SDS011;465;48.802;9.224;2022-11-27T11:12:20;8.30;;;7.60;;
956;SDS011;465;48.802;9.224;2022-11-27T11:14:49;7.70;;;7.10;;
956;SDS011;465;48.802;9.224;2022-11-27T11:17:16;7.23;;;6.53;;
956;SDS011;465;48.802;9.224;2022-11-27T11:19:50;7.70;;;7.10;;
956;SDS011;465;48.802;9.224;2022-11-27T11:22:17;7.07;;;6.47;;
956;SDS011;465;48.802;9.224;2022-11-27T11:24:48;7.20;;;6.60;;
956;SDS011;465;48.802;9.224;2022-11-27T11:27:16;7.10;;;6.50;;
956;SDS011;465;48.802;9.224;2022-11-27T11:29:46;8.40;;;7.70;;
956;SDS011;465;48.802;9.224;2022-11-27T11:32:20;7.47;;;6.77;;
956;SDS011;465;48.802;9.224;2022-11-27T11:34:49;8.30;;;7.50;;
956;SDS011;465;48.802;9.224;2022-11-27T11:37:20;8.07;;;7.37;;
956;SDS011;465;48.802;9.224;2022-11-27T11:39:53;8.27;;;7.57;;
956;SDS011;465;48.802;9.224;2022-11-27T11:42:24;7.70;;;7.10;;
956;SDS011;465;48.802;9.224;2022-11-27T11:44:53;8.83;;;8.13;;
956;SDS011;465;48.802;9.224;2022-11-27T11:47:26;8.30;;;7.50;;
956;SDS011;465;48.802;9.224;2022-11-27T11:49:54;8.30;;;7.53;;
956;SDS011;465;48.802;9.224;2022-11-27T11:52:28;8.83;;;8.03;;
956;SDS011;465;48.802;9.224;2022-11-27T11:55:19;7.40;;;6.70;;
956;SDS011;465;48.802;9.224;2022-11-27T11:57:55;7.83;;;7.13;;
956;SDS011;465;48.802;9.224;2022-11-27T12:00:35;8.73;;;7.77;;
956;SDS011;465;48.802;9.224;2022-11-27T12:06:00;7.73;;;7.03;;
956;SDS011;465;48.802;9.224;2022-11-27T12:08:50;8.90;;;8.13;;
956;SDS011;465;48.802;9.224;2022-11-27T12:11:26;8.23;;;7.53;;
956;SDS011;465;48.802;9.224;2022-11-27T12:14:02;8.50;;;7.77;;
956;SDS011;465;48.802;9.224;2022-11-27T12:16:40;7.60;;;6.97;;
956;SDS011;465;48.802;9.224;2022-11-27T12:19:23;7.83;;;7.10;;
956;SDS011;465;48.802;9.224;2022-11-27T12:22:15;8.00;;;7.30;;
956;SDS011;465;48.802;9.224;2022-11-27T12:24:54;7.73;;;7.10;;
956;SDS011;465;48.802;9.224;2022-11-27T12:27:32;7.73;;;6.80;;
956;SDS011;465;48.802;9.224;2022-11-27T12:30:09;8.00;;;7.20;;
956;SDS011;465;48.802;9.224;2022-11-27T12:35:43;7.87;;;7.07;;
956;SDS011;465;48.802;9.224;2022-11-27T12:38:21;8.83;;;8.00;;
956;SDS011;465;48.802;9.224;2022-11-27T12:41:17;7.60;;;6.90;;
956;SDS011;465;48.802;9.224;2022-11-27T12:44:04;8.70;;;7.80;;
956;SDS011;465;48.802;9.224;2022-11-27T12:46:45;9.50;;;8.60;;
956;SDS011;465;48.802;9.224;2022-11-27T12:49:19;7.93;;;7.17;;
956;SDS011;465;48.802;9.224;2022-11-27T12:51:50;8.60;;;7.80;;
956;SDS011;465;48.802;9.224;2022-11-27T12:54:26;9.00;;;8.17;;
956;SDS011;465;48.802;9.224;2022-11-27T12:56:57;9.37;;;8.47;;
956;SDS011;465;48.802;9.224;2022-11-27T12:59:30;9.03;;;8.00;;
956;SDS011;465;48.802;9.224;2022-11-27T13:02:02;10.53;;;9.53;;
956;SDS011;465;48.802;9.224;2022-11-27T13:04:38;9.77;;;8.70;;
956;SDS011;465;48.802;9.224;2022-11-27T13:07:10;10.30;;;8.63;;
956;SDS011;465;48.802;9.224;2022-11-27T13:09:44;9.03;;;7.53;;
956;SDS011;465;48.802;9.224;2022-11-27T13:12:18;11.63;;;8.17;;
956;SDS011;465;48.802;9.224;2022-11-27T13:14:50;8.70;;;7.90;;
956;SDS011;465;48.802;9.224;2022-11-27T13:17:22;9.80;;;8.90;;
956;SDS011;465;48.802;9.224;2022-11-27T13:19:52;10.80;;;9.50;;
956;SDS011;465;48.802;9.224;2022-11-27T13:22:21;9.50;;;8.50;;
956;SDS011;465;48.802;9.224;2022-11-27T13:24:55;8.93;;;8.13;;
956;SDS011;465;48.802;9.224;2022-11-27T13:27:26;8.93;;;8.13;;
956;SDS011;465;48.802;9.224;2022-11-27T13:29:56;9.33;;;7.87;;
956;SDS011;465;48.802;9.224;2022-11-27T13:32:28;8.33;;;7.53;;
956;SDS011;465;48.802;9.224;2022-11-27T13:34:57;9.00;;;8.10;;
956;SDS011;465;48.802;9.224;2022-11-27T13:37:28;8.27;;;7.47;;
956;SDS011;465;48.802;9.224;2022-11-27T13:39:59;8.70;;;7.90;;
956;SDS011;465;48.802;9.224;2022-11-27T13:42:29;8.40;;;7.60;;
956;SDS011;465;48.802;9.224;2022-11-27T13:45:00;7.47;;;6.80;;
956;SDS011;465;48.802;9.224;2022-11-27T13:47:34;8.00;;;6.80;;
956;SDS011;465;48.802;9.224;2022-11-27T13:50:05;8.17;;;7.37;;
956;SDS011;465;48.802;9.224;2022-11-27T13:52:34;8.50;;;7.40;;
956;SDS011;465;48.802;9.224;2022-11-27T13:55:05;8.10;;;7.30;;
956;SDS011;465;48.802;9.224;2022-11-27T13:57:34;8.70;;;7.47;;
956;SDS011;465;48.802;9.224;2022-11-27T14:00:03;10.47;;;9.13;;
956;SDS011;465;48.802;9.224;2022-11-27T14:02:38;10.40;;;8.20;;
956;SDS011;465;48.802;9.224;2022-11-27T14:05:06;9.77;;;8.73;;
956;SDS011;465;48.802;9.224;2022-11-27T14:07:34;8.17;;;7.17;;
956;SDS011;465;48.802;9.224;2022-11-27T14:10:07;8.50;;;7.60;;
956;SDS011;465;48.802;9.224;2022-11-27T14:12:38;8.23;;;7.50;;
956;SDS011;465;48.802;9.224;2022-11-27T14:15:08;9.60;;;8.10;;
956;SDS011;465;48.802;9.224;2022-11-27T14:17:46;11.37;;;8.30;;
956;SDS011;465;48.802;9.224;2022-11-27T14:20:23;11.30;;;9.40;;
956;SDS011;465;48.802;9.224;2022-11-27T14:22:53;9.47;;;8.57;;
956;SDS011;465;48.802;9.224;2022-11-27T14:25:24;9.60;;;8.73;;
956;SDS011;465;48.802;9.224;2022-11-27T14:27:56;11.40;;;10.27;;
956;SDS011;465;48.802;9.224;2022-11-27T14:30:28;10.00;;;9.00;;
956;SDS011;465;48.802;9.224;2022-11-27T14:32:58;10.13;;;9.13;;
956;SDS011;465;48.802;9.224;2022-11-27T14:35:26;11.83;;;9.70;;
956;SDS011;465;48.802;9.224;2022-11-27T14:37:53;12.10;;;10.80;;
956;SDS011;465;48.802;9.224;2022-11-27T14:40:33;18.07;;;10.20;;
956;SDS011;465;48.802;9.224;2022-11-27T14:43:07;11.03;;;9.80;;
956;SDS011;465;48.802;9.224;2022-11-27T14:45:36;11.70;;;9.70;;
956;SDS011;465;48.802;9.224;2022-11-27T14:48:11;10.70;;;9.03;;
956;SDS011;465;48.802;9.224;2022-11-27T14:50:44;12.70;;;9.10;;
956;SDS011;465;48.802;9.224;2022-11-27T14:56:03;10.07;;;8.17;;
956;SDS011;465;48.802;9.224;2022-11-27T14:58:30;10.43;;;9.07;;
956;SDS011;465;48.802;9.224;2022-11-27T15:00:58;12.63;;;10.60;;
956;SDS011;465;48.802;9.224;2022-11-27T15:03:27;13.90;;;12.70;;
956;SDS011;465;48.802;9.224;2022-11-27T15:05:58;12.50;;;11.40;;
956;SDS011;465;48.802;9.224;2022-11-27T15:08:27;11.00;;;9.80;;
956;SDS011;465;48.802;9.224;2022-11-27T15:10:57;10.77;;;9.73;;
956;SDS011;465;48.802;9.224;2022-11-27T15:13:28;11.23;;;10.17;;
956;SDS011;465;48.802;9.224;2022-11-27T15:15:58;10.80;;;9.47;;
956;SDS011;465;48.802;9.224;2022-11-27T15:18:29;10.60;;;8.73;;
956;SDS011;465;48.802;9.224;2022-11-27T15:20:58;11.83;;;10.20;;
956;SDS011;465;48.802;9.224;2022-11-27T15:23:26;9.10;;;8.23;;
956;SDS011;465;48.802;9.224;2022-11-27T15:26:03;9.83;;;8.93;;
956;SDS011;465;48.802;9.224;2022-11-27T15:28:36;12.00;;;8.17;;
956;SDS011;465;48.802;9.224;2022-11-27T15:31:22;8.90;;;8.10;;
956;SDS011;465;48.802;9.224;2022-11-27T15:33:59;8.83;;;7.93;;
956;SDS011;465;48.802;9.224;2022-11-27T15:36:32;10.57;;;8.10;;
956;SDS011;465;48.802;9.224;2022-11-27T15:39:08;8.80;;;7.90;;
956;SDS011;465;48.802;9.224;2022-11-27T15:41:50;9.70;;;8.07;;
956;SDS011;465;48.802;9.224;2022-11-27T15:44:20;12.53;;;7.97;;
956;SDS011;465;48.802;9.224;2022-11-27T15:46:47;8.33;;;6.73;;
956;SDS011;465;48.802;9.224;2022-11-27T15:49:15;9.10;;;7.77;;
956;SDS011;465;48.802;9.224;2022-11-27T15:51:43;11.07;;;8.30;;
956;SDS011;465;48.802;9.224;2022-11-27T15:54:10;9.50;;;8.30;;